Terminal Aerodrome Forecast
Issued by NWS

Home | Current Version | Previous Version | Text Only | Print | Product List | Glossary Off
Versions: 1 2 3 4 5 6 7 8 9 10 11 12 13 14 15

000
FTUS43 KBIS 250423 AAC
TAFDIK
TAF AMD
KDIK 250423Z 2504/2524 31025G35KT 3SM -SHRA OVC008
     FM250800 31027G37KT 6SM -SHRA OVC015
     FM251100 30023G33KT P6SM SCT045
     FM252300 31017G24KT P6SM SKC=

USA.gov is the U.S. government's official web portal to all federal, state and local government web resources and services.